ADDS METAR Data INFO
IDs: Format: Raw Decoded Include TAF

Data at: 0300 UTC 21 Jan 2018

KESC 210256Z AUTO 00000KT 10SM SCT085 01/M02 A2994 RMK AO2 SLP164 T00061017 51006 FZRANO
KESC 210156Z AUTO 20005KT 10SM BKN100 01/M01 A2994 RMK AO2 SLP165 T00111011 FZRANO
KESC 210056Z AUTO 00000KT 10SM OVC100 01/M01 A2993 RMK AO2 SLP161 T00061011 FZRANO
KESC 202356Z AUTO 00000KT 10SM OVC100 01/M01 A2992 RMK AO2 SLP158 T00111011 10039 20011 52013 FZRANO
KESC 202256Z AUTO 00000KT 10SM OVC100 01/M01 A2991 RMK AO2 SLP153 T00111011 FZRANO
KESC 202156Z AUTO 19003KT 10SM OVC110 03/M01 A2990 RMK AO2 SLP150 T00281011
KESC 202056Z AUTO 21003KT 10SM OVC110 03/M01 A2988 RMK AO2 SLP145 T00331011 53008
KESC 201956Z AUTO 00000KT 10SM OVC110 04/M02 A2986 RMK AO2 SLP135 T00391017
KESC 201856Z AUTO 25007KT 10SM OVC095 03/M02 A2986 RMK AO2 SLP138 T00331017
KESC 201756Z AUTO 26005KT 10SM BKN100 03/M02 A2986 RMK AO2 SLP136 T00331017 10039 21061 51015
KESC 201656Z AUTO 25006KT 10SM CLR 04/M02 A2986 RMK AO2 SLP135 T00391017
KESC 201556Z AUTO 25007KT 10SM CLR 03/M02 A2984 RMK AO2 SLP131 T00281017
KESC 201456Z AUTO 27004KT 10SM FEW022 M03/M04 A2981 RMK AO2 SLP122 T10331044 51025 FZRANO
KESC 201449Z AUTO 26004KT 10SM SCT022 M04/M04 A2981 RMK AO2 FZRANO
KESC 201409Z AUTO 30003KT 8SM BKN022 M06/M07 A2980 RMK AO2 FZRANO
KESC 201356Z AUTO 31003KT 7SM FEW022 M06/M07 A2979 RMK AO2 SLP113 T10561072 FZRANO
KESC 201256Z AUTO 26004KT 10SM CLR M04/M05 A2977 RMK AO2 SLP106 T10441050 FZRANO
KESC 201156Z AUTO 00000KT 10SM CLR M04/M05 A2974 RMK AO2 SLP096 T10441050 10006 21044 53028 FZRANO TSNO
KESC 201056Z AUTO 00000KT 10SM CLR M03/M04 A2971 RMK AO2 SLP084 T10331044 FZRANO
KESC 200956Z AUTO 00000KT 10SM CLR M02/M04 A2967 RMK AO2 SLP072 T10221039 FZRANO
KESC 200856Z AUTO 23003KT 10SM CLR M01/M03 A2966 RMK AO2 SLP066 T10061033 53036 FZRANO
KESC 200756Z AUTO 00000KT 10SM CLR 00/M03 A2962 RMK AO2 SLP053 T00001033 FZRANO
KESC 200656Z AUTO 26004KT 10SM CLR 01/M03 A2958 RMK AO2 SLP039 T00061033 FZRANO
KESC 200556Z AUTO 23005KT 10SM CLR 01/M03 A2955 RMK AO2 SLP029 T00061033 10006 21022 53024 FZRANO
KESC 200456Z AUTO 25006KT 10SM CLR 00/M03 A2952 RMK AO2 SLP020 T00001033 400061078 FZRANO
KESC 200356Z AUTO 25007KT 10SM CLR M01/M04 A2949 RMK AO2 SLP010 T10111039 FZRANO
KESC 200256Z AUTO 23006KT 10SM CLR M02/M04 A2948 RMK AO2 SLP007 T10171039 55007 FZRANO
KESC 200156Z AUTO 21006KT 10SM CLR M02/M04 A2947 RMK AO2 SLP004 T10221039 FZRANO
KESC 200056Z AUTO 19007KT 10SM CLR M01/M03 A2947 RMK AO2 SLP003 T10111033 FZRANO
KESC 192356Z AUTO 19009KT 10SM CLR M01/M03 A2950 RMK AO2 SLP012 T10061028 10006 21011 55003 FZRANO
KESC 192256Z AUTO 19007KT 10SM CLR 00/M03 A2948 RMK AO2 SLP005 T00001033 FZRANO
KESC 192156Z AUTO 20014G22KT 10SM CLR 00/M03 A2949 RMK AO2 PK WND 22026/2115 SLP008 T00001033 FZRANO
KESC 192056Z AUTO 19012G18KT 10SM FEW110 M01/M03 A2950 RMK AO2 SLP014 T10061033 56030 FZRANO
KESC 191956Z AUTO 20014G20KT 10SM SCT120 M01/M04 A2953 RMK AO2 SLP023 T10111039 FZRANO
KESC 191856Z AUTO 20012G19KT 10SM SCT110 M01/M04 A2956 RMK AO2 SLP034 T10111044 FZRANO
KESC 191756Z AUTO 19010KT 10SM CLR M01/M04 A2959 RMK AO2 SLP048 T10111044 11006 21072 58022 FZRANO
KESC 191656Z AUTO 19008KT 10SM CLR M02/M05 A2962 RMK AO2 SLP057 T10171050 FZRANO
KESC 191556Z AUTO 18009KT 10SM CLR M02/M06 A2964 RMK AO2 SLP063 T10171056 FZRANO